sensor_id;sensor_type;location;lat;lon;timestamp;pressure;altitude;pressure_sealevel;temperature;humidity
84356;BME280;74539;43.518;1.504;2024-03-29T00:00:43;97605.28;;;21.65;38.66
84356;BME280;74539;43.518;1.504;2024-03-29T00:03:10;97602.56;;;21.65;38.60
84356;BME280;74539;43.518;1.504;2024-03-29T00:05:36;97607.59;;;21.63;38.40
84356;BME280;74539;43.518;1.504;2024-03-29T00:08:05;97616.13;;;21.62;38.81
84356;BME280;74539;43.518;1.504;2024-03-29T00:10:31;97595.16;;;21.62;38.79
84356;BME280;74539;43.518;1.504;2024-03-29T00:12:57;97593.22;;;21.59;38.32
84356;BME280;74539;43.518;1.504;2024-03-29T00:15:23;97606.00;;;21.59;38.27
84356;BME280;74539;43.518;1.504;2024-03-29T00:17:48;97607.97;;;21.58;38.49
84356;BME280;74539;43.518;1.504;2024-03-29T00:20:14;97597.09;;;21.58;38.49
84356;BME280;74539;43.518;1.504;2024-03-29T00:22:40;97606.00;;;21.55;38.27
84356;BME280;74539;43.518;1.504;2024-03-29T00:25:06;97593.16;;;21.52;38.27
84356;BME280;74539;43.518;1.504;2024-03-29T00:27:32;97595.50;;;21.54;38.29
84356;BME280;74539;43.518;1.504;2024-03-29T00:29:58;97609.47;;;21.52;37.93
84356;BME280;74539;43.518;1.504;2024-03-29T00:32:24;97605.16;;;21.51;38.15
84356;BME280;74539;43.518;1.504;2024-03-29T00:34:51;97610.59;;;21.51;38.08
84356;BME280;74539;43.518;1.504;2024-03-29T00:37:18;97579.16;;;21.50;38.24
84356;BME280;74539;43.518;1.504;2024-03-29T00:39:45;97586.13;;;21.47;38.08
84356;BME280;74539;43.518;1.504;2024-03-29T00:42:11;97608.66;;;21.48;39.18
84356;BME280;74539;43.518;1.504;2024-03-29T00:44:41;97592.34;;;21.48;39.23
84356;BME280;74539;43.518;1.504;2024-03-29T00:47:08;97574.88;;;21.45;38.42
84356;BME280;74539;43.518;1.504;2024-03-29T00:49:33;97594.69;;;21.46;38.16
84356;BME280;74539;43.518;1.504;2024-03-29T00:52:00;97590.00;;;21.43;38.28
84356;BME280;74539;43.518;1.504;2024-03-29T00:54:25;97575.63;;;21.42;39.14
84356;BME280;74539;43.518;1.504;2024-03-29T00:56:51;97591.13;;;21.42;38.17
84356;BME280;74539;43.518;1.504;2024-03-29T00:59:18;97585.31;;;21.40;39.22
84356;BME280;74539;43.518;1.504;2024-03-29T01:01:44;97609.00;;;21.39;38.45
84356;BME280;74539;43.518;1.504;2024-03-29T01:04:10;97614.78;;;21.38;38.63
84356;BME280;74539;43.518;1.504;2024-03-29T01:06:37;97603.16;;;21.37;38.51
84356;BME280;74539;43.518;1.504;2024-03-29T01:09:03;97610.53;;;21.37;38.45
84356;BME280;74539;43.518;1.504;2024-03-29T01:11:32;97615.94;;;21.37;39.19
84356;BME280;74539;43.518;1.504;2024-03-29T01:13:58;97606.22;;;21.36;37.99
84356;BME280;74539;43.518;1.504;2024-03-29T01:16:24;97596.50;;;21.35;38.88
84356;BME280;74539;43.518;1.504;2024-03-29T01:18:49;97596.88;;;21.33;39.39
84356;BME280;74539;43.518;1.504;2024-03-29T01:21:17;97591.47;;;21.33;38.52
84356;BME280;74539;43.518;1.504;2024-03-29T01:23:43;97575.53;;;21.32;39.38
84356;BME280;74539;43.518;1.504;2024-03-29T01:26:09;97573.56;;;21.28;38.36
84356;BME280;74539;43.518;1.504;2024-03-29T01:28:38;97570.84;;;21.28;39.44
84356;BME280;74539;43.518;1.504;2024-03-29T01:31:04;97584.41;;;21.28;38.96
84356;BME280;74539;43.518;1.504;2024-03-29T01:33:30;97584.41;;;21.28;38.39
84356;BME280;74539;43.518;1.504;2024-03-29T01:36:03;97588.31;;;21.27;38.39
84356;BME280;74539;43.518;1.504;2024-03-29T01:38:29;97568.88;;;21.25;38.24
84356;BME280;74539;43.518;1.504;2024-03-29T01:40:55;97566.53;;;21.24;38.68
84356;BME280;74539;43.518;1.504;2024-03-29T01:43:21;97569.63;;;21.22;38.96
84356;BME280;74539;43.518;1.504;2024-03-29T01:45:48;97562.66;;;21.21;38.52
84356;BME280;74539;43.518;1.504;2024-03-29T01:48:15;97554.88;;;21.20;38.86
84356;BME280;74539;43.518;1.504;2024-03-29T01:50:41;97555.25;;;21.18;39.25
84356;BME280;74539;43.518;1.504;2024-03-29T01:53:08;97578.53;;;21.19;38.69
84356;BME280;74539;43.518;1.504;2024-03-29T01:55:35;97564.19;;;21.19;38.52
84356;BME280;74539;43.518;1.504;2024-03-29T01:58:01;97574.25;;;21.18;39.01
84356;BME280;74539;43.518;1.504;2024-03-29T02:00:28;97560.28;;;21.16;38.73
84356;BME280;74539;43.518;1.504;2024-03-29T02:02:54;97569.59;;;21.15;38.98
84356;BME280;74539;43.518;1.504;2024-03-29T02:05:20;97557.91;;;21.15;39.02
84356;BME280;74539;43.518;1.504;2024-03-29T02:07:46;97561.81;;;21.14;38.60
84356;BME280;74539;43.518;1.504;2024-03-29T02:10:14;97543.19;;;21.12;39.40
84356;BME280;74539;43.518;1.504;2024-03-29T02:12:40;97557.13;;;21.11;38.76
84356;BME280;74539;43.518;1.504;2024-03-29T02:15:06;97561.78;;;21.10;39.49
84356;BME280;74539;43.518;1.504;2024-03-29T02:17:32;97571.88;;;21.10;39.73
84356;BME280;74539;43.518;1.504;2024-03-29T02:19:58;97571.09;;;21.09;39.47
84356;BME280;74539;43.518;1.504;2024-03-29T02:22:25;97558.28;;;21.10;39.39
84356;BME280;74539;43.518;1.504;2024-03-29T02:24:53;97570.28;;;21.09;39.26
84356;BME280;74539;43.518;1.504;2024-03-29T02:27:21;97569.13;;;21.06;39.22
84356;BME280;74539;43.518;1.504;2024-03-29T02:29:47;97574.91;;;21.04;38.92
84356;BME280;74539;43.518;1.504;2024-03-29T02:32:12;97591.97;;;21.05;38.83
84356;BME280;74539;43.518;1.504;2024-03-29T02:34:38;97593.16;;;21.04;39.12
84356;BME280;74539;43.518;1.504;2024-03-29T02:37:04;97595.84;;;21.04;38.97
84356;BME280;74539;43.518;1.504;2024-03-29T02:39:30;97584.59;;;21.02;39.64
84356;BME280;74539;43.518;1.504;2024-03-29T02:41:55;97585.75;;;21.01;39.62
84356;BME280;74539;43.518;1.504;2024-03-29T02:44:21;97573.34;;;21.00;39.09
84356;BME280;74539;43.518;1.504;2024-03-29T02:46:47;97564.03;;;21.01;39.01
84356;BME280;74539;43.518;1.504;2024-03-29T02:49:12;97565.19;;;21.00;39.26
84356;BME280;74539;43.518;1.504;2024-03-29T02:51:38;97559.34;;;20.98;39.33
84356;BME280;74539;43.518;1.504;2024-03-29T02:54:04;97564.78;;;20.98;39.52
84356;BME280;74539;43.518;1.504;2024-03-29T02:56:29;97571.38;;;20.97;39.71
84356;BME280;74539;43.518;1.504;2024-03-29T02:58:56;97579.53;;;20.97;39.49
84356;BME280;74539;43.518;1.504;2024-03-29T03:01:21;97568.66;;;20.97;39.19
84356;BME280;74539;43.518;1.504;2024-03-29T03:03:47;97565.53;;;20.95;40.25
84356;BME280;74539;43.518;1.504;2024-03-29T03:06:13;97562.41;;;20.93;39.60
84356;BME280;74539;43.518;1.504;2024-03-29T03:08:38;97556.97;;;20.93;40.04
84356;BME280;74539;43.518;1.504;2024-03-29T03:11:22;97559.28;;;20.91;39.59
84356;BME280;74539;43.518;1.504;2024-03-29T03:13:48;97545.69;;;20.91;39.67
84356;BME280;74539;43.518;1.504;2024-03-29T03:16:14;97543.75;;;20.88;39.98
84356;BME280;74539;43.518;1.504;2024-03-29T03:18:39;97544.16;;;20.90;39.77
84356;BME280;74539;43.518;1.504;2024-03-29T03:21:05;97543.75;;;20.88;39.41
84356;BME280;74539;43.518;1.504;2024-03-29T03:23:31;97536.00;;;20.86;40.00
84356;BME280;74539;43.518;1.504;2024-03-29T03:25:58;97544.91;;;20.87;39.66
84356;BME280;74539;43.518;1.504;2024-03-29T03:28:24;97546.84;;;20.86;39.74
84356;BME280;74539;43.518;1.504;2024-03-29T03:30:51;97566.63;;;20.87;39.74
84356;BME280;74539;43.518;1.504;2024-03-29T03:33:17;97584.06;;;20.86;39.85
84356;BME280;74539;43.518;1.504;2024-03-29T03:35:43;97589.50;;;20.86;39.59
84356;BME280;74539;43.518;1.504;2024-03-29T03:38:09;97580.94;;;20.84;40.05
84356;BME280;74539;43.518;1.504;2024-03-29T03:40:36;97592.56;;;20.84;39.89
84356;BME280;74539;43.518;1.504;2024-03-29T03:43:03;97596.44;;;20.83;40.03
84356;BME280;74539;43.518;1.504;2024-03-29T03:45:33;97579.38;;;20.83;39.71
84356;BME280;74539;43.518;1.504;2024-03-29T03:47:58;97579.38;;;20.83;39.97
84356;BME280;74539;43.518;1.504;2024-03-29T03:50:24;97584.03;;;20.82;40.24
84356;BME280;74539;43.518;1.504;2024-03-29T03:52:50;97592.53;;;20.80;39.83
84356;BME280;74539;43.518;1.504;2024-03-29T03:55:15;97597.19;;;20.80;40.20
84356;BME280;74539;43.518;1.504;2024-03-29T03:57:41;97596.41;;;20.79;39.55
84356;BME280;74539;43.518;1.504;2024-03-29T04:00:07;97581.25;;;20.78;40.38
84356;BME280;74539;43.518;1.504;2024-03-29T04:02:33;97595.63;;;20.79;39.93
84356;BME280;74539;43.518;1.504;2024-03-29T04:04:58;97603.34;;;20.77;39.87
84356;BME280;74539;43.518;1.504;2024-03-29T04:07:25;97613.44;;;20.76;40.39
84356;BME280;74539;43.518;1.504;2024-03-29T04:09:51;97601.00;;;20.75;40.48
84356;BME280;74539;43.518;1.504;2024-03-29T04:12:17;97594.81;;;20.75;40.16
84356;BME280;74539;43.518;1.504;2024-03-29T04:14:43;97595.97;;;20.74;39.72
84356;BME280;74539;43.518;1.504;2024-03-29T04:17:08;97592.47;;;20.73;40.23
84356;BME280;74539;43.518;1.504;2024-03-29T04:19:34;97587.41;;;20.72;39.89
84356;BME280;74539;43.518;1.504;2024-03-29T04:22:00;97592.47;;;20.73;40.23
84356;BME280;74539;43.518;1.504;2024-03-29T04:24:25;97595.53;;;20.72;39.84
84356;BME280;74539;43.518;1.504;2024-03-29T04:26:53;97588.94;;;20.69;40.22
84356;BME280;74539;43.518;1.504;2024-03-29T04:29:18;97604.06;;;20.70;40.13
84356;BME280;74539;43.518;1.504;2024-03-29T04:31:47;97614.94;;;20.70;40.45
84356;BME280;74539;43.518;1.504;2024-03-29T04:34:12;97622.28;;;20.70;40.34
84356;BME280;74539;43.518;1.504;2024-03-29T04:36:38;97624.19;;;20.69;40.34
84356;BME280;74539;43.518;1.504;2024-03-29T04:39:04;97621.09;;;20.67;39.99
84356;BME280;74539;43.518;1.504;2024-03-29T04:41:30;97631.94;;;20.67;40.45
84356;BME280;74539;43.518;1.504;2024-03-29T04:44:00;97619.50;;;20.66;40.32
84356;BME280;74539;43.518;1.504;2024-03-29T04:46:26;97636.94;;;20.65;39.93
84356;BME280;74539;43.518;1.504;2024-03-29T04:48:54;97635.00;;;20.66;40.23
84356;BME280;74539;43.518;1.504;2024-03-29T04:51:20;97623.38;;;20.65;40.59
84356;BME280;74539;43.518;1.504;2024-03-29T04:53:46;97636.53;;;20.63;39.76
84356;BME280;74539;43.518;1.504;2024-03-29T04:56:11;97643.53;;;20.64;40.62
84356;BME280;74539;43.518;1.504;2024-03-29T04:58:37;97648.19;;;20.64;40.40
84356;BME280;74539;43.518;1.504;2024-03-29T05:01:03;97639.63;;;20.62;40.11
84356;BME280;74539;43.518;1.504;2024-03-29T05:03:28;97634.56;;;20.60;40.86
84356;BME280;74539;43.518;1.504;2024-03-29T05:05:54;97648.94;;;20.61;40.54
84356;BME280;74539;43.518;1.504;2024-03-29T05:08:20;97648.13;;;20.60;41.30
84356;BME280;74539;43.518;1.504;2024-03-29T05:10:48;97629.13;;;20.60;40.72
84356;BME280;74539;43.518;1.504;2024-03-29T05:13:15;97631.47;;;20.58;41.35
84356;BME280;74539;43.518;1.504;2024-03-29T05:15:41;97639.59;;;20.58;40.41
84356;BME280;74539;43.518;1.504;2024-03-29T05:18:07;97638.81;;;20.57;40.62
84356;BME280;74539;43.518;1.504;2024-03-29T05:20:32;97654.28;;;20.57;40.81
84356;BME280;74539;43.518;1.504;2024-03-29T05:22:58;97658.16;;;20.56;40.44
84356;BME280;74539;43.518;1.504;2024-03-29T05:25:24;97666.31;;;20.56;40.78
84356;BME280;74539;43.518;1.504;2024-03-29T05:27:50;97667.47;;;20.55;40.51
84356;BME280;74539;43.518;1.504;2024-03-29T05:30:16;97646.91;;;20.54;41.12
84356;BME280;74539;43.518;1.504;2024-03-29T05:32:42;97648.06;;;20.53;40.31
84356;BME280;74539;43.518;1.504;2024-03-29T05:35:09;97648.06;;;20.53;40.66
84356;BME280;74539;43.518;1.504;2024-03-29T05:37:35;97634.50;;;20.53;40.85
84356;BME280;74539;43.518;1.504;2024-03-29T05:40:01;97643.78;;;20.52;41.18
84356;BME280;74539;43.518;1.504;2024-03-29T05:42:30;97627.84;;;20.50;40.81
84356;BME280;74539;43.518;1.504;2024-03-29T05:44:56;97627.84;;;20.50;40.37
84356;BME280;74539;43.518;1.504;2024-03-29T05:47:22;97632.50;;;20.50;40.63
84356;BME280;74539;43.518;1.504;2024-03-29T05:49:48;97636.38;;;20.49;40.37
84356;BME280;74539;43.518;1.504;2024-03-29T05:52:14;97647.94;;;20.46;40.87
84356;BME280;74539;43.518;1.504;2024-03-29T05:54:41;97652.22;;;20.47;40.58
84356;BME280;74539;43.518;1.504;2024-03-29T05:57:07;97650.66;;;20.46;40.39
84356;BME280;74539;43.518;1.504;2024-03-29T05:59:34;97660.34;;;20.47;40.93
84356;BME280;74539;43.518;1.504;2024-03-29T06:02:00;97660.34;;;20.47;40.93
84356;BME280;74539;43.518;1.504;2024-03-29T06:04:26;97655.28;;;20.45;41.20
84356;BME280;74539;43.518;1.504;2024-03-29T06:07:03;97665.34;;;20.45;41.44
84356;BME280;74539;43.518;1.504;2024-03-29T06:09:29;97682.41;;;20.45;40.60
84356;BME280;74539;43.518;1.504;2024-03-29T06:11:55;97678.91;;;20.45;40.78
84356;BME280;74539;43.518;1.504;2024-03-29T06:14:22;97674.66;;;20.44;40.84
84356;BME280;74539;43.518;1.504;2024-03-29T06:17:11;97679.69;;;20.45;41.52
84356;BME280;74539;43.518;1.504;2024-03-29T06:19:50;97678.91;;;20.45;41.48
84356;BME280;74539;43.518;1.504;2024-03-29T06:22:24;97680.50;;;20.46;40.77
84356;BME280;74539;43.518;1.504;2024-03-29T06:24:51;97682.06;;;20.47;40.70
84356;BME280;74539;43.518;1.504;2024-03-29T06:27:23;97684.75;;;20.47;41.20
84356;BME280;74539;43.518;1.504;2024-03-29T06:29:52;97684.34;;;20.45;41.82
84356;BME280;74539;43.518;1.504;2024-03-29T06:32:17;97686.75;;;20.50;40.59
84356;BME280;74539;43.518;1.504;2024-03-29T06:34:44;97689.91;;;20.52;40.67
84356;BME280;74539;43.518;1.504;2024-03-29T06:37:10;97687.19;;;20.52;40.67
84356;BME280;74539;43.518;1.504;2024-03-29T06:39:36;97689.16;;;20.55;40.52
84356;BME280;74539;43.518;1.504;2024-03-29T06:42:02;97696.56;;;20.58;40.93
84356;BME280;74539;43.518;1.504;2024-03-29T06:44:28;97701.59;;;20.59;41.33
84356;BME280;74539;43.518;1.504;2024-03-29T06:46:53;97706.69;;;20.61;40.56
84356;BME280;74539;43.518;1.504;2024-03-29T06:49:19;97693.88;;;20.62;41.50
84356;BME280;74539;43.518;1.504;2024-03-29T06:51:45;97688.50;;;20.65;40.81
84356;BME280;74539;43.518;1.504;2024-03-29T06:54:11;97686.22;;;20.67;40.72
84356;BME280;74539;43.518;1.504;2024-03-29T06:56:36;97686.25;;;20.71;41.06
84356;BME280;74539;43.518;1.504;2024-03-29T06:59:02;97682.41;;;20.75;41.03
84356;BME280;74539;43.518;1.504;2024-03-29T07:01:28;97681.66;;;20.78;41.05
84356;BME280;74539;43.518;1.504;2024-03-29T07:03:53;97691.03;;;20.85;40.54
84356;BME280;74539;43.518;1.504;2024-03-29T07:06:19;97681.41;;;20.91;40.97
84356;BME280;74539;43.518;1.504;2024-03-29T07:08:45;97694.31;;;20.97;40.93
84356;BME280;74539;43.518;1.504;2024-03-29T07:11:10;97703.72;;;21.07;40.86
84356;BME280;74539;43.518;1.504;2024-03-29T07:13:36;97692.13;;;21.14;40.51
84356;BME280;74539;43.518;1.504;2024-03-29T07:16:02;97693.00;;;21.21;41.13
84356;BME280;74539;43.518;1.504;2024-03-29T07:18:28;97696.19;;;21.31;41.22
84356;BME280;74539;43.518;1.504;2024-03-29T07:20:54;97690.06;;;21.37;41.30
84356;BME280;74539;43.518;1.504;2024-03-29T07:23:19;97694.41;;;21.45;40.62
84356;BME280;74539;43.518;1.504;2024-03-29T07:26:02;97691.38;;;21.54;41.17
84356;BME280;74539;43.518;1.504;2024-03-29T07:28:29;97684.47;;;21.64;40.56
84356;BME280;74539;43.518;1.504;2024-03-29T07:30:55;97682.97;;;21.70;41.45
84356;BME280;74539;43.518;1.504;2024-03-29T07:33:22;97682.25;;;21.77;41.16
84356;BME280;74539;43.518;1.504;2024-03-29T07:35:57;97678.78;;;21.83;41.35
84356;BME280;74539;43.518;1.504;2024-03-29T07:38:22;97676.50;;;21.89;40.88
84356;BME280;74539;43.518;1.504;2024-03-29T07:40:49;97682.38;;;21.98;41.02
84356;BME280;74539;43.518;1.504;2024-03-29T07:43:15;97679.31;;;22.03;41.34
84356;BME280;74539;43.518;1.504;2024-03-29T07:45:41;97674.31;;;22.09;40.77
84356;BME280;74539;43.518;1.504;2024-03-29T07:48:14;97673.16;;;22.13;41.06
84356;BME280;74539;43.518;1.504;2024-03-29T07:50:40;97672.06;;;22.18;39.98
84356;BME280;74539;43.518;1.504;2024-03-29T07:53:06;97666.22;;;22.20;39.84
84356;BME280;74539;43.518;1.504;2024-03-29T07:55:32;97651.50;;;22.24;40.10
84356;BME280;74539;43.518;1.504;2024-03-29T07:57:58;97646.84;;;22.28;40.43
84356;BME280;74539;43.518;1.504;2024-03-29T08:00:25;97650.34;;;22.32;40.35
84356;BME280;74539;43.518;1.504;2024-03-29T08:02:51;97661.25;;;22.36;40.18
84356;BME280;74539;43.518;1.504;2024-03-29T08:05:20;97662.06;;;22.40;39.79
84356;BME280;74539;43.518;1.504;2024-03-29T08:07:46;97662.06;;;22.47;39.91
84356;BME280;74539;43.518;1.504;2024-03-29T08:10:11;97675.31;;;22.52;39.99
84356;BME280;74539;43.518;1.504;2024-03-29T08:12:37;97677.69;;;22.57;40.26
84356;BME280;74539;43.518;1.504;2024-03-29T08:15:04;97681.59;;;22.63;39.85
84356;BME280;74539;43.518;1.504;2024-03-29T08:17:29;97690.94;;;22.70;40.10
84356;BME280;74539;43.518;1.504;2024-03-29T08:19:57;97698.34;;;22.76;39.23
84356;BME280;74539;43.518;1.504;2024-03-29T08:22:22;97706.53;;;22.83;39.46
84356;BME280;74539;43.518;1.504;2024-03-29T08:24:48;97698.00;;;22.85;39.24
84356;BME280;74539;43.518;1.504;2024-03-29T08:27:13;97698.00;;;22.85;39.37
84356;BME280;74539;43.518;1.504;2024-03-29T08:29:43;97687.06;;;22.78;40.08
84356;BME280;74539;43.518;1.504;2024-03-29T08:32:08;97683.97;;;22.83;39.81
84356;BME280;74539;43.518;1.504;2024-03-29T08:34:39;97687.88;;;22.85;40.12
84356;BME280;74539;43.518;1.504;2024-03-29T08:37:04;97673.88;;;22.87;39.74
84356;BME280;74539;43.518;1.504;2024-03-29T08:39:31;97665.69;;;22.87;40.07
84356;BME280;74539;43.518;1.504;2024-03-29T08:41:57;97666.09;;;22.89;39.84
84356;BME280;74539;43.518;1.504;2024-03-29T08:44:23;97663.78;;;22.91;40.16
84356;BME280;74539;43.518;1.504;2024-03-29T08:46:50;97665.78;;;22.94;40.21
84356;BME280;74539;43.518;1.504;2024-03-29T08:49:16;97664.59;;;22.95;40.32
84356;BME280;74539;43.518;1.504;2024-03-29T08:51:42;97669.69;;;23.00;40.63
84356;BME280;74539;43.518;1.504;2024-03-29T08:54:07;97672.41;;;23.00;40.39
84356;BME280;74539;43.518;1.504;2024-03-29T08:56:33;97671.63;;;23.03;40.96
84356;BME280;74539;43.518;1.504;2024-03-29T08:59:05;97661.09;;;23.05;40.87
84356;BME280;74539;43.518;1.504;2024-03-29T09:01:37;97663.06;;;23.05;40.28
84356;BME280;74539;43.518;1.504;2024-03-29T09:04:03;97679.03;;;23.06;41.02
84356;BME280;74539;43.518;1.504;2024-03-29T09:06:32;97690.28;;;23.08;40.44
84356;BME280;74539;43.518;1.504;2024-03-29T09:08:58;97685.66;;;23.09;39.95
84356;BME280;74539;43.518;1.504;2024-03-29T09:11:24;97689.91;;;23.10;40.56
84356;BME280;74539;43.518;1.504;2024-03-29T09:13:50;97686.41;;;23.09;40.26
84356;BME280;74539;43.518;1.504;2024-03-29T09:16:15;97687.97;;;23.11;40.92
84356;BME280;74539;43.518;1.504;2024-03-29T09:18:41;97690.69;;;23.11;40.93
84356;BME280;74539;43.518;1.504;2024-03-29T09:21:07;97693.41;;;23.11;40.41
84356;BME280;74539;43.518;1.504;2024-03-29T09:23:34;97682.53;;;23.11;40.14
84356;BME280;74539;43.518;1.504;2024-03-29T09:26:00;97688.75;;;23.11;40.32
84356;BME280;74539;43.518;1.504;2024-03-29T09:28:29;97686.41;;;23.09;39.98
84356;BME280;74539;43.518;1.504;2024-03-29T09:31:00;97690.28;;;23.08;39.98
84356;BME280;74539;43.518;1.504;2024-03-29T09:33:27;97694.19;;;23.07;40.75
84356;BME280;74539;43.518;1.504;2024-03-29T09:35:53;97689.53;;;23.08;39.85
84356;BME280;74539;43.518;1.504;2024-03-29T09:38:19;97683.69;;;23.06;39.96
84356;BME280;74539;43.518;1.504;2024-03-29T09:40:45;97679.41;;;23.05;40.34
84356;BME280;74539;43.518;1.504;2024-03-29T09:43:12;97673.19;;;23.04;40.98
84356;BME280;74539;43.518;1.504;2024-03-29T09:45:40;97657.59;;;22.98;40.90
84356;BME280;74539;43.518;1.504;2024-03-29T09:48:08;97650.97;;;23.02;40.94
84356;BME280;74539;43.518;1.504;2024-03-29T09:50:37;97652.94;;;23.02;40.50
84356;BME280;74539;43.518;1.504;2024-03-29T09:53:05;97652.16;;;23.01;40.12
84356;BME280;74539;43.518;1.504;2024-03-29T09:55:31;97646.31;;;22.99;40.44
84356;BME280;74539;43.518;1.504;2024-03-29T09:57:57;97649.03;;;22.99;40.28
84356;BME280;74539;43.518;1.504;2024-03-29T10:00:23;97644.38;;;23.00;40.24
84356;BME280;74539;43.518;1.504;2024-03-29T10:02:49;97640.50;;;22.97;40.74
84356;BME280;74539;43.518;1.504;2024-03-29T10:05:16;97649.44;;;22.98;41.04
84356;BME280;74539;43.518;1.504;2024-03-29T10:07:43;97655.25;;;22.96;41.52
84356;BME280;74539;43.518;1.504;2024-03-29T10:10:10;97653.69;;;22.95;40.77
84356;BME280;74539;43.518;1.504;2024-03-29T10:12:37;97641.63;;;22.96;41.27
84356;BME280;74539;43.518;1.504;2024-03-29T10:15:03;97636.59;;;22.95;40.57
84356;BME280;74539;43.518;1.504;2024-03-29T10:17:47;97638.09;;;22.92;41.07
84356;BME280;74539;43.518;1.504;2024-03-29T10:20:17;97628.75;;;22.93;41.67
84356;BME280;74539;43.518;1.504;2024-03-29T10:22:44;97631.88;;;22.92;41.23
84356;BME280;74539;43.518;1.504;2024-03-29T10:25:11;97629.94;;;22.92;41.27
84356;BME280;74539;43.518;1.504;2024-03-29T10:27:37;97626.81;;;22.90;41.73
84356;BME280;74539;43.518;1.504;2024-03-29T10:30:03;97619.44;;;22.91;41.83
84356;BME280;74539;43.518;1.504;2024-03-29T10:32:29;97617.88;;;22.90;42.02
84356;BME280;74539;43.518;1.504;2024-03-29T10:34:55;97612.81;;;22.88;41.57
84356;BME280;74539;43.518;1.504;2024-03-29T10:37:21;97611.66;;;22.85;41.61
84356;BME280;74539;43.518;1.504;2024-03-29T10:39:51;97603.09;;;22.87;41.85
84356;BME280;74539;43.518;1.504;2024-03-29T10:42:19;97597.63;;;22.87;41.66
84356;BME280;74539;43.518;1.504;2024-03-29T10:44:47;97606.22;;;22.85;41.58
84356;BME280;74539;43.518;1.504;2024-03-29T10:47:18;97613.59;;;22.85;41.61
84356;BME280;74539;43.518;1.504;2024-03-29T10:49:49;97606.56;;;22.84;41.97
84356;BME280;74539;43.518;1.504;2024-03-29T10:52:17;97603.84;;;22.84;42.23
84356;BME280;74539;43.518;1.504;2024-03-29T10:54:44;97605.03;;;22.83;41.58
84356;BME280;74539;43.518;1.504;2024-03-29T10:57:25;97605.44;;;22.81;42.14
84356;BME280;74539;43.518;1.504;2024-03-29T11:00:12;97610.47;;;22.83;41.73
84356;BME280;74539;43.518;1.504;2024-03-29T11:02:51;97587.16;;;22.82;41.41
84356;BME280;74539;43.518;1.504;2024-03-29T11:05:22;97586.75;;;22.80;41.98
84356;BME280;74539;43.518;1.504;2024-03-29T11:07:49;97584.44;;;22.82;41.89
84356;BME280;74539;43.518;1.504;2024-03-29T11:10:32;97578.56;;;22.80;42.44
84356;BME280;74539;43.518;1.504;2024-03-29T11:15:55;97579.75;;;22.79;42.54
84356;BME280;74539;43.518;1.504;2024-03-29T11:18:21;97578.94;;;22.78;41.98
84356;BME280;74539;43.518;1.504;2024-03-29T11:20:50;97579.75;;;22.79;41.88
84356;BME280;74539;43.518;1.504;2024-03-29T11:23:20;97578.19;;;22.78;41.82
84356;BME280;74539;43.518;1.504;2024-03-29T11:25:50;97570.41;;;22.76;42.16
84356;BME280;74539;43.518;1.504;2024-03-29T11:28:32;97566.91;;;22.79;42.40
84356;BME280;74539;43.518;1.504;2024-03-29T11:31:03;97557.97;;;22.86;42.50
84356;BME280;74539;43.518;1.504;2024-03-29T11:36:12;97560.28;;;22.84;42.28
84356;BME280;74539;43.518;1.504;2024-03-29T11:38:39;97558.75;;;22.83;42.70
84356;BME280;74539;43.518;1.504;2024-03-29T11:41:07;97565.75;;;22.80;42.43
84356;BME280;74539;43.518;1.504;2024-03-29T11:43:34;97565.34;;;22.78;42.99
84356;BME280;74539;43.518;1.504;2024-03-29T11:46:01;97554.44;;;22.78;42.09
84356;BME280;74539;43.518;1.504;2024-03-29T11:48:29;97558.34;;;22.77;42.26
84356;BME280;74539;43.518;1.504;2024-03-29T11:50:57;97553.31;;;22.76;42.09
84356;BME280;74539;43.518;1.504;2024-03-29T11:53:23;97560.28;;;22.77;42.93
84356;BME280;74539;43.518;1.504;2024-03-29T11:55:49;97529.94;;;22.75;42.81
84356;BME280;74539;43.518;1.504;2024-03-29T11:58:28;97513.25;;;22.73;42.22
84356;BME280;74539;43.518;1.504;2024-03-29T12:00:55;97540.06;;;22.74;42.64
84356;BME280;74539;43.518;1.504;2024-03-29T12:03:24;97539.66;;;22.72;42.27
84356;BME280;74539;43.518;1.504;2024-03-29T12:05:51;97507.00;;;22.72;42.42
84356;BME280;74539;43.518;1.504;2024-03-29T12:08:21;97511.66;;;22.72;42.87
84356;BME280;74539;43.518;1.504;2024-03-29T12:10:47;97527.63;;;22.73;42.52
84356;BME280;74539;43.518;1.504;2024-03-29T12:13:16;97516.75;;;22.73;42.30
84356;BME280;74539;43.518;1.504;2024-03-29T12:15:42;97518.28;;;22.71;42.91
84356;BME280;74539;43.518;1.504;2024-03-29T12:18:08;97524.91;;;22.73;43.23
84356;BME280;74539;43.518;1.504;2024-03-29T12:20:38;97516.75;;;22.73;42.23
84356;BME280;74539;43.518;1.504;2024-03-29T12:23:08;97507.81;;;22.73;41.98
84356;BME280;74539;43.518;1.504;2024-03-29T12:25:37;97514.41;;;22.72;42.45
84356;BME280;74539;43.518;1.504;2024-03-29T12:28:03;97521.78;;;22.71;42.83
84356;BME280;74539;43.518;1.504;2024-03-29T12:30:29;97516.75;;;22.70;42.08
84356;BME280;74539;43.518;1.504;2024-03-29T12:33:03;97521.78;;;22.71;42.88
84356;BME280;74539;43.518;1.504;2024-03-29T12:35:29;97511.31;;;22.70;42.45
84356;BME280;74539;43.518;1.504;2024-03-29T12:38:02;97496.88;;;22.69;42.28
84356;BME280;74539;43.518;1.504;2024-03-29T12:40:32;97510.50;;;22.69;42.18
84356;BME280;74539;43.518;1.504;2024-03-29T12:43:07;97504.28;;;22.69;42.39
84356;BME280;74539;43.518;1.504;2024-03-29T12:45:36;97504.28;;;22.69;43.23
84356;BME280;74539;43.518;1.504;2024-03-29T12:48:02;97506.22;;;22.68;43.15
84356;BME280;74539;43.518;1.504;2024-03-29T12:50:32;97506.22;;;22.68;42.99
84356;BME280;74539;43.518;1.504;2024-03-29T12:53:05;97501.97;;;22.67;43.00
84356;BME280;74539;43.518;1.504;2024-03-29T12:55:31;97498.47;;;22.67;43.22
84356;BME280;74539;43.518;1.504;2024-03-29T12:58:01;97497.66;;;22.66;42.68
84356;BME280;74539;43.518;1.504;2024-03-29T13:00:30;97512.06;;;22.67;43.10
84356;BME280;74539;43.518;1.504;2024-03-29T13:02:56;97503.91;;;22.67;43.04
84356;BME280;74539;43.518;1.504;2024-03-29T13:05:22;97498.47;;;22.67;43.59